Latest Coastal Weather Observations for Learmonth

IDW60701

Issued at 7:12 pm WST Saturday 23 July 2016 (issued every 10 minutes, with the page automatically refreshed every 10 minutes)

About coastal observations | Map of coastal stations | Coastal observations for WA | Marine services | Other Formats
Station Details ID: 005007 Name: LEARMONTH AIRPORT Lat: -22.24 Lon: 114.10 Height: 5.0 m
Data from the previous 72 hours. | See also: Recent months at Learmonth
Date/Time
WST
Temp
°C
Wind Pressure Rain since
9am
mm
Weather Cloud Vis
km
Sea
Height
m
Swell
Dir  Spd
kts
Gust
kts
hPa Trend Height
m
Period
s
Dir
23/07:00pm 17.5 ESE 8 11 1018.0 - 0.0 - Partly cloudy 10 - - - -
23/06:30pm 17.5 ESE 7 8 1017.6 - 0.0 - Cloudy 10 - - - -
23/06:00pm 17.5 SE 5 7 1017.4 - 0.0 - Cloudy 10 - - - -
23/05:30pm 17.9 SSE 9 12 1017.1 - 0.0 - Cloudy 10 - - - -
23/05:00pm 18.2 SSE 11 15 1016.6 - 0.0 - Cloudy 10 - - - -
23/04:30pm 18.4 SSE 11 15 1016.9 - 0.0 - Partly cloudy 10 - - - -
23/04:00pm 18.2 S 13 17 1016.9 - 0.0 - Cloudy 10 - - - -
23/03:30pm 17.8 SSE 14 17 1016.9 - 0.0 - Partly cloudy 10 - - - -
23/03:00pm 17.9 SSE 14 19 1017.0 - 0.0 - Cloudy 10 - - - -
23/02:30pm 17.4 SSE 14 19 1017.6 - 0.0 - Cloudy 10 - - - -
23/02:00pm 17.4 S 14 18 1017.6 - 0.0 - Partly cloudy 10 - - - -
23/01:30pm 17.5 S 13 16 1017.8 - 0.0 - Partly cloudy 10 - - - -
23/01:00pm 17.1 S 12 17 1018.3 - 0.0 - Partly cloudy 10 - - - -
23/12:30pm 16.9 S 14 17 1018.9 - 0.0 - Partly cloudy 10 - - - -
23/12:00pm 16.6 S 14 17 1019.3 - 0.0 - Cloudy 10 - - - -
23/11:30am 16.4 S 11 16 1019.5 - 0.0 - Cloudy 10 - - - -
23/11:00am 16.2 S 11 14 1019.6 - 0.0 - Cloudy 10 - - - -
23/10:30am 15.9 S 9 12 1019.5 - 0.0 - Cloudy 10 - - - -
23/10:00am 15.8 SSE 8 9 1019.3 - 0.0 - Partly cloudy 10 - - - -
23/09:30am 15.4 S 6 8 1019.3 - 0.0 - Cloudy 10 - - - -
23/09:00am 14.5 SW 6 7 1019.0 - 6.2 - Mostly cloudy 10 - - - -
23/08:30am 14.3 SW 6 8 1018.7 - 5.8 - Partly cloudy 10 - - - -
23/08:00am 13.9 SW 1 4 1018.1 - 5.6 - Cloudy 10 - - - -
23/07:38am 13.7 S 4 6 1017.9 - 5.6 - Cloudy 10 - - - -
23/07:30am 13.7 SSW 6 8 1018.2 - 5.6 - Partly cloudy 10 - - - -
23/07:18am 13.8 S 6 7 1018.2 - 5.4 - Cloudy 4 - - - -
23/07:00am 13.8 SSW 6 7 1018.2 - 5.4 - Cloudy 10 - - - -
23/06:30am 14.0 SSW 6 7 1017.9 - 5.4 - Cloudy 10 - - - -
23/06:00am 14.2 SSW 7 8 1017.9 - 5.4 - Cloudy 10 - - - -
23/05:30am 14.5 SSW 7 9 1017.7 - 5.4 - Cloudy 10 - - - -
23/05:00am 15.3 SSW 9 10 1017.8 - 5.2 - Partly cloudy 10 - - - -
23/04:30am 15.8 S 3 6 1017.2 - 5.0 - Cloudy 10 - - - -
23/04:00am 15.8 WSW 6 7 1017.9 - 5.0 - Partly cloudy 10 - - - -
23/03:30am 15.8 SW 5 6 1017.7 - 4.8 - Partly cloudy 10 - - - -
23/03:00am 15.8 SW 5 7 1017.7 - 4.6 - Mostly cloudy 10 - - - -
23/02:30am 15.8 SW 5 6 1018.2 - 4.4 - Cloudy 10 - - - -
23/02:00am 15.9 SW 7 9 1018.3 - 4.4 - Cloudy 10 - - - -
23/01:30am 15.8 ENE 11 12 1017.2 - 4.4 - Cloudy 10 - - - -
23/01:00am 16.0 WSW 3 4 1019.2 - 4.4 - Partly cloudy 10 - - - -
23/12:30am 15.9 SW 2 4 1018.8 - 4.4 - Cloudy 10 - - - -
23/12:00am 15.9 W 3 5 1019.1 - 4.4 - Mostly cloudy 10 - - - -
 
Date/Time
WST
Temp
°C
Wind Pressure Rain since
9am
mm
Weather Cloud Vis
km
Sea
Height
m
Swell
Dir  Spd
kts
Gust
kts
hPa Trend Height
m
Period
s
Dir
22/11:30pm 15.9 N 5 6 1019.6 - 4.2 - Partly cloudy 10 - - - -
22/11:00pm 16.1 W 1 4 1019.3 - 3.4 - Partly cloudy 10 - - - -
22/10:30pm 16.1 WSW 5 5 1019.5 - 2.6 - Partly cloudy 10 - - - -
22/10:00pm 16.2 SW 4 5 1019.5 - 2.2 - Partly cloudy 10 - - - -
22/09:30pm 16.3 WSW 5 5 1019.3 - 1.8 - Partly cloudy 10 - - - -
22/09:00pm 16.2 WSW 4 6 1018.9 - 1.8 - Mostly cloudy 10 - - - -
22/08:30pm 16.3 WNW 4 5 1018.8 - 1.8 - Partly cloudy 10 - - - -
22/08:00pm 16.3 CALM 0 0 1018.6 - 1.8 - Partly cloudy 10 - - - -
22/07:30pm 16.5 CALM 0 0 1018.5 - 1.6 - Partly cloudy 10 - - - -
22/07:00pm 16.4 WSW 4 5 1018.3 - 1.2 - Partly cloudy 10 - - - -
22/06:30pm 17.0 W 6 6 1018.1 - 0.8 - Partly cloudy 10 - - - -
22/06:00pm 17.4 S 3 4 1017.4 - 0.6 - Cloudy 10 - - - -
22/05:30pm 17.6 S 5 6 1017.6 - 0.6 - Partly cloudy 10 - - - -
22/05:00pm 18.5 S 7 8 1017.3 - 0.6 - Partly cloudy 10 - - - -
22/04:30pm 17.9 SE 7 10 1017.4 - 0.6 - Partly cloudy 10 - - - -
22/04:00pm 18.0 SE 7 10 1017.2 - 0.6 - Partly cloudy 10 - - - -
22/03:30pm 17.6 SE 9 12 1017.5 - 0.6 Rain Partly cloudy 10 - - - -
22/03:00pm 17.8 SE 11 13 1017.5 - 0.6 - Mostly cloudy 10 - - - -
22/02:30pm 18.0 SE 12 16 1017.9 - 0.6 - Partly cloudy 10 - - - -
22/02:00pm 18.0 ESE 13 16 1018.1 - 0.6 - Partly cloudy 10 - - - -
22/01:30pm 17.9 SE 14 17 1018.2 - 0.6 - Partly cloudy 10 - - - -
22/01:00pm 17.7 SE 12 16 1019.1 - 0.6 - Mostly clear 10 - - - -
22/12:30pm 17.3 SSE 11 13 1019.5 - 0.6 - Mostly clear 10 - - - -
22/12:00pm 15.9 SSE 11 16 1019.6 - 0.2 - Cloudy 10 - - - -
22/11:30am 16.3 SSE 12 16 1020.1 - 0.0 Rain Partly cloudy 10 - - - -
22/11:00am 16.8 SE 12 16 1020.4 - 0.0 Rain Mostly clear 10 - - - -
22/10:30am 17.6 SSE 13 16 1020.7 - 0.0 - Partly cloudy 10 - - - -
22/10:00am 16.5 SSE 12 17 1020.8 - 0.0 Rain Mostly clear 10 - - - -
22/09:30am 16.3 SSE 12 16 1020.5 - 0.0 Rain Partly cloudy 10 - - - -
22/09:00am 16.5 SSE 13 16 1020.0 - 0.0 - Cloudy 10 - - - -
22/08:30am 16.5 SSE 11 15 1020.0 - 0.0 - Cloudy 10 - - - -
22/08:00am 16.0 SSE 10 14 1019.7 - 0.0 - Cloudy 10 - - - -
22/07:30am 15.8 S 10 13 1019.4 - 0.0 - Cloudy 10 - - - -
22/07:00am 15.7 SSE 8 11 1019.1 - 0.0 - Cloudy 10 - - - -
22/06:30am 15.2 S 8 9 1018.9 - 0.0 - Partly cloudy 10 - - - -
22/06:00am 15.0 S 6 8 1018.6 - 0.0 - Cloudy 10 - - - -
22/05:30am 14.8 S 6 7 1018.5 - 0.0 - Partly cloudy 10 - - - -
22/05:00am 15.0 SSW 6 7 1018.8 - 0.0 - Cloudy 10 - - - -
22/04:30am 15.1 S 7 8 1018.5 - 0.0 - Partly cloudy 10 - - - -
22/04:00am 15.2 S 7 9 1018.1 - 0.0 - Partly cloudy 10 - - - -
22/03:30am 15.0 S 6 7 1018.4 - 0.0 - Partly cloudy 10 - - - -
22/03:00am 15.0 S 7 9 1018.2 - 0.0 - Mostly cloudy 10 - - - -
22/02:30am 14.8 S 7 9 1018.5 - 0.0 - Partly cloudy 10 - - - -
22/02:00am 15.1 S 7 9 1018.9 - 0.0 - Partly cloudy 10 - - - -
22/01:30am 15.3 S 8 10 1019.2 - 0.0 - Partly cloudy 10 - - - -
22/01:00am 15.4 S 8 10 1019.3 - 0.0 - Partly cloudy 10 - - - -
22/12:30am 15.4 S 8 9 1019.1 - 0.0 - Partly cloudy 10 - - - -
22/12:00am 15.5 S 8 10 1019.0 - 0.0 - Mostly cloudy 10 - - - -
 
Date/Time
WST
Temp
°C
Wind Pressure Rain since
9am
mm
Weather Cloud Vis
km
Sea
Height
m
Swell
Dir  Spd
kts
Gust
kts
hPa Trend Height
m
Period
s
Dir
21/11:30pm 15.1 SSW 5 5 1019.6 - 0.0 - Cloudy 10 - - - -
21/11:00pm 15.1 SW 5 7 1019.7 - 0.0 - Partly cloudy 10 - - - -
21/10:30pm 15.1 SSW 6 7 1020.0 - 0.0 - - 10 - - - -
21/10:00pm 15.3 SSW 5 7 1019.8 - 0.0 - Partly cloudy 10 - - - -
21/09:30pm 15.6 SW 6 7 1019.8 - 0.0 - Partly cloudy 10 - - - -
21/09:00pm 15.6 SW 5 7 1019.8 - 0.0 - Mostly clear 10 - - - -
21/08:30pm 15.8 SSW 5 6 1019.4 - 0.0 - - 10 - - - -
21/08:00pm 16.1 S 5 6 1019.5 - 0.0 - Partly cloudy 10 - - - -
21/07:30pm 16.5 SSW 6 7 1019.4 - 0.0 - Partly cloudy 10 - - - -
21/07:00pm 16.9 S 7 8 1018.8 - 0.0 - Partly cloudy 10 - - - -
21/06:30pm 17.5 S 6 7 1018.3 - 0.0 - Partly cloudy 10 - - - -
21/06:00pm 18.2 S 8 10 1018.1 - 0.0 - Cloudy 10 - - - -
21/05:30pm 18.8 S 10 12 1017.8 - 0.0 - Partly cloudy 10 - - - -
21/05:00pm 19.3 SSE 11 14 1017.6 - 0.0 - Partly cloudy 10 - - - -
21/04:30pm 19.8 SSE 14 17 1017.3 - 0.0 - Partly cloudy 10 - - - -
21/04:00pm 20.0 SSE 11 14 1017.1 - 0.0 - Partly cloudy 10 - - - -
21/03:30pm 20.0 SSE 11 17 1017.0 - 0.0 - Partly cloudy 10 - - - -
21/03:00pm 20.4 SSE 8 11 1016.9 - 0.0 - - 10 - - - -
21/02:30pm 19.8 SE 6 9 1017.1 - 0.0 - Partly cloudy 10 - - - -
21/02:00pm 18.9 ESE 6 7 1017.2 - 0.0 - Partly cloudy 10 - - - -
21/01:30pm 18.7 E 6 7 1017.5 - 0.0 - Partly cloudy 10 - - - -
21/01:00pm 18.5 E 8 10 1017.9 - 0.0 - Partly cloudy 10 - - - -
21/12:30pm 18.8 ESE 5 7 1018.3 - 0.0 - Partly cloudy 10 - - - -
21/12:00pm 18.4 E 5 7 1018.7 - 0.0 - Partly cloudy 10 - - - -
21/11:30am 18.3 ESE 5 7 1018.8 - 0.0 - Partly cloudy 10 - - - -
21/11:00am 17.4 ESE 5 7 1018.8 - 0.0 - Cloudy 10 - - - -
21/10:30am 16.7 SSE 3 5 1019.2 - 0.0 - Cloudy 10 - - - -
21/10:00am 16.1 SE 4 5 1019.0 - 0.0 - Cloudy 10 - - - -
21/09:30am 15.7 W 2 5 1019.3 - 0.0 - Cloudy 10 - - - -
21/09:00am 15.1 CALM 0 5 1018.9 - 0.0 - Cloudy 10 - - - -
21/08:30am 14.7 WSW 3 4 1018.4 - 0.0 - Cloudy 10 - - - -
21/08:00am 14.0 WSW 5 5 1018.2 - 0.0 - Cloudy 10 - - - -
21/07:30am 13.5 SW 5 5 1017.7 - 0.0 - Cloudy 10 - - - -
21/07:00am 13.4 WSW 6 7 1017.6 - 0.0 - Cloudy 10 - - - -
21/06:30am 13.1 WSW 5 6 1017.2 - 0.0 - Partly cloudy 10 - - - -
21/06:00am 13.3 SW 5 5 1016.6 - 0.0 - - 10 - - - -
21/05:30am 13.1 SSW 6 7 1016.4 - 0.0 - - 10 - - - -
21/05:00am 13.1 SW 5 6 1016.2 - 0.0 - - 10 - - - -
21/04:30am 12.8 SW 5 6 1016.2 - 0.0 - - 10 - - - -
21/04:00am 12.6 SW 6 7 1016.3 - 0.0 - - 10 - - - -
21/03:30am 12.5 SW 7 8 1016.3 - 0.0 - - 10 - - - -
21/03:00am 12.1 WSW 5 6 1016.4 - 0.0 - - 10 - - - -
21/02:30am 12.1 SW 4 5 1016.6 - 0.0 - - 10 - - - -
21/02:00am 11.4 SW 5 6 1016.6 - 0.0 - - 10 - - - -
21/01:30am 11.1 SSW 7 8 1016.5 - 0.0 - - 10 - - - -
21/01:00am 10.7 SSW 8 9 1016.6 - 0.0 - - 10 - - - -
21/12:30am 10.7 SW 6 7 1016.8 - 0.0 - - 10 - - - -
21/12:00am 9.8 SW 6 7 1016.6 - 0.0 - - 10 - - - -
 
Date/Time
WST
Temp
°C
Wind Pressure Rain since
9am
mm
Weather Cloud Vis
km
Sea
Height
m
Swell
Dir  Spd
kts
Gust
kts
hPa Trend Height
m
Period
s
Dir
20/11:30pm 9.7 SSW 8 8 1016.5 - 0.0 - - 10 - - - -
20/11:00pm 9.8 SW 7 9 1016.3 - 0.0 - - 10 - - - -
20/10:30pm 10.3 SSW 5 6 1016.3 - 0.0 - - 10 - - - -
20/10:00pm 12.0 SW 7 8 1016.5 - 0.0 - - 10 - - - -
20/09:30pm 12.3 WSW 7 8 1016.5 - 0.0 - - 10 - - - -
20/09:00pm 13.1 WSW 7 8 1016.1 - 0.0 - Mostly clear 10 - - - -
20/08:30pm 13.3 WSW 7 8 1016.1 - 0.0 - - 10 - - - -
20/08:00pm 13.8 W 6 7 1015.8 - 0.0 - - 10 - - - -
20/07:30pm 14.2 SW 6 7 1015.6 - 0.0 - - 10 - - - -

Other Formats:

Comma delimited format used in spreadsheet applications
http://www.bom.gov.au/fwo/IDW60701/IDW60701.94302.axf

JavaScript Object Notation format (JSON) in row-major order
http://www.bom.gov.au/fwo/IDW60701/IDW60701.94302.json